ラスベガス の空港の天気 - METARとTAF

マッカラン国際空港 ( KLAS / LAS ) - アメリカ ネバダ州ラスベガス
飛行場実況気象(Metar)
観測時間02/25 00:56 PST (02/25 08:56 UTC)
風向・風速東南東 2m/s
視程10km以上
天気現象
なし
気温12.2℃
湿度35%
気圧1022.8hPa
METARKLAS 250856Z 12004KT 10SM CLR 12/M03 A3023 RMK AO2 SLP228 T01221028 50012
過去の天気等 Google飛行場航空写真 Wunderground天気予報

過去48時間のMETAR

飛行場予報(TAF)
発表時間: 2/25 00:46 PST (2/25 08:46 UTC)
予報対象時間: 25日1時 PST ~ 26日4時 PST
風向・風速不定 3m/s
視程10km以上
なし
25日5時 PST から
風向・風速北北東 4m/s
視程10km以上
少しの雲 雲底高度 7620m
25日8時 PST から
風向・風速北東 6m/s 瞬間風速 11m/s
視程10km以上
なし
25日18時 PST から
風向・風速不定 3m/s
視程10km以上
なし
KLAS 250846Z 2509/2612 VRB05KT P6SM SKC
FM251300 02008KT P6SM FEW250
FM251600 04012G22KT P6SM SKC
FM260200 VRB05KT P6SM SKC